< < Back
Terminal Aerodrome Forecast


Current Version              Previous Versions:   1  2  3  4  5  6  7  8  9  

Terminal Aerodrome Forecast

996
FTUS42 KFFC 170500
TAFCSG
TAF
KCSG 170535Z 1706/1806 10006KT P6SM SKC
     FM171300 08010KT P6SM SCT025 BKN250
     FM171600 10010G20KT P6SM SCT040 BKN250
     FM172000 10009G16KT P6SM BKN040
     FM180000 09009KT P6SM BKN035=

Latest METAR

604
SAUS70 KWBC 170700
MTRCSG
METAR KCSG 170651Z 11008KT 10SM CLR 08/03 A3030 RMK AO2 SLP259
T00780028


USA.gov is the U.S. government's official web portal to all federal, state and local government web resources and services.